createdAt,value
2022-11-02T00:01:21.036Z,13.31
2022-11-02T00:03:48.445Z,13.43
2022-11-02T00:06:15.016Z,13.23
2022-11-02T00:08:41.654Z,13.26
2022-11-02T00:11:08.505Z,13.35
2022-11-02T00:13:35.076Z,13.40
2022-11-02T00:16:04.619Z,13.42
2022-11-02T00:18:32.704Z,13.47
2022-11-02T00:20:59.477Z,13.27
2022-11-02T00:23:26.040Z,13.29
2022-11-02T00:25:54.291Z,13.37
2022-11-02T00:28:20.950Z,13.42
2022-11-02T00:30:47.731Z,13.33
2022-11-02T00:33:14.402Z,13.37
2022-11-02T00:35:42.186Z,13.55
2022-11-02T00:38:08.911Z,13.67
2022-11-02T00:40:36.158Z,13.59
2022-11-02T00:43:03.294Z,13.61
2022-11-02T00:45:29.866Z,13.57
2022-11-02T00:47:56.405Z,13.56
2022-11-02T00:50:22.974Z,13.42
2022-11-02T00:52:49.580Z,13.53
2022-11-02T00:55:18.026Z,13.50
2022-11-02T00:57:45.020Z,13.59
2022-11-02T01:00:12.499Z,13.74
2022-11-02T01:02:39.601Z,13.93
2022-11-02T01:05:07.843Z,13.85
2022-11-02T01:07:35.160Z,13.69
2022-11-02T01:10:02.147Z,13.63
2022-11-02T01:12:28.743Z,13.75
2022-11-02T01:14:55.304Z,13.77
2022-11-02T01:17:21.909Z,13.74
2022-11-02T01:19:50.469Z,13.67
2022-11-02T01:22:17.906Z,13.87
2022-11-02T01:24:44.462Z,13.66
2022-11-02T01:27:11.046Z,13.81
2022-11-02T01:29:37.593Z,14.06
2022-11-02T01:32:04.327Z,13.75
2022-11-02T01:34:31.027Z,13.87
2022-11-02T01:36:57.639Z,13.81
2022-11-02T01:39:24.179Z,13.90
2022-11-02T01:41:52.582Z,13.82
2022-11-02T01:44:37.486Z,13.80
2022-11-02T01:47:35.506Z,14.00
2022-11-02T01:50:27.686Z,13.81
2022-11-02T01:52:54.528Z,13.74
2022-11-02T01:55:29.381Z,13.71
2022-11-02T01:58:01.527Z,13.85
2022-11-02T02:00:28.325Z,13.76
2022-11-02T02:03:02.264Z,13.89
2022-11-02T02:05:30.797Z,13.76
2022-11-02T02:07:58.005Z,13.80
2022-11-02T02:10:24.803Z,13.89
2022-11-02T02:12:51.603Z,14.01
2022-11-02T02:15:25.277Z,13.96
2022-11-02T02:18:16.408Z,14.11
2022-11-02T02:21:02.750Z,14.13
2022-11-02T02:23:48.149Z,13.82
2022-11-02T02:26:21.669Z,13.98
2022-11-02T02:29:34.462Z,13.93
2022-11-02T02:32:13.023Z,13.92
2022-11-02T02:34:53.533Z,13.76
2022-11-02T02:37:27.925Z,13.72
2022-11-02T02:40:11.216Z,13.67
2022-11-02T02:42:47.281Z,13.61
2022-11-02T02:45:33.093Z,13.87
2022-11-02T02:48:14.651Z,13.80
2022-11-02T02:50:49.055Z,13.51
2022-11-02T02:53:23.241Z,13.64
2022-11-02T02:55:51.785Z,13.63
2022-11-02T02:58:22.966Z,13.78
2022-11-02T03:00:49.805Z,13.83
2022-11-02T03:03:20.762Z,13.64
2022-11-02T03:06:26.371Z,13.56
2022-11-02T03:09:34.413Z,13.54
2022-11-02T03:12:36.491Z,13.75
2022-11-02T03:15:16.699Z,13.63
2022-11-02T03:17:55.770Z,13.71
2022-11-02T03:20:30.710Z,13.62
2022-11-02T03:23:19.098Z,13.58
2022-11-02T03:26:04.442Z,13.65
2022-11-02T03:28:56.758Z,13.56
2022-11-02T03:31:47.265Z,13.65
2022-11-02T03:34:16.494Z,13.52
2022-11-02T03:36:57.109Z,13.65
2022-11-02T03:39:38.138Z,13.66
2022-11-02T03:42:07.291Z,13.49
2022-11-02T03:44:39.197Z,13.63
2022-11-02T03:47:11.360Z,13.63
2022-11-02T03:49:42.031Z,13.70
2022-11-02T03:52:14.144Z,13.55
2022-11-02T03:54:51.909Z,13.69
2022-11-02T03:57:23.778Z,13.76
2022-11-02T03:59:50.871Z,13.67
2022-11-02T04:02:19.667Z,13.63
2022-11-02T04:04:49.997Z,13.70
2022-11-02T04:07:24.926Z,13.72
2022-11-02T04:09:51.638Z,13.58
2022-11-02T04:12:36.974Z,13.57
2022-11-02T04:15:03.802Z,13.68
2022-11-02T04:17:49.123Z,13.82
2022-11-02T04:20:16.752Z,13.57
2022-11-02T04:23:02.259Z,13.84
2022-11-02T04:25:28.898Z,13.86
2022-11-02T04:28:22.068Z,13.84
2022-11-02T04:31:02.251Z,14.04
2022-11-02T04:33:35.050Z,13.76
2022-11-02T04:36:08.958Z,13.65
2022-11-02T04:38:40.462Z,13.69
2022-11-02T04:41:39.025Z,13.76
2022-11-02T04:44:11.136Z,13.74
2022-11-02T04:46:39.595Z,13.76
2022-11-02T04:49:08.533Z,13.65
2022-11-02T04:51:36.605Z,13.66
2022-11-02T04:54:03.951Z,13.85
2022-11-02T04:56:32.063Z,13.82
2022-11-02T04:59:00.363Z,13.71
2022-11-02T05:01:29.893Z,13.76
2022-11-02T05:03:59.033Z,13.67
2022-11-02T05:06:27.603Z,13.82
2022-11-02T05:08:55.482Z,13.84
2022-11-02T05:11:23.312Z,13.80
2022-11-02T05:13:50.731Z,13.97
2022-11-02T05:16:18.801Z,13.97
2022-11-02T05:18:46.453Z,13.81
2022-11-02T05:21:15.420Z,13.87
2022-11-02T05:23:42.177Z,13.95
2022-11-02T05:26:12.031Z,13.93
2022-11-02T05:28:42.406Z,13.79
2022-11-02T05:31:09.146Z,13.71
2022-11-02T05:33:36.810Z,13.72
2022-11-02T05:36:11.032Z,13.65
2022-11-02T05:41:12.456Z,13.61
2022-11-02T05:43:40.329Z,13.62
2022-11-02T05:46:10.543Z,13.51
2022-11-02T05:48:37.059Z,13.73
2022-11-02T05:51:04.539Z,13.72
2022-11-02T05:53:33.731Z,13.67
2022-11-02T05:56:01.981Z,13.69
2022-11-02T05:58:29.522Z,13.57
2022-11-02T06:01:02.744Z,13.71
2022-11-02T06:03:30.177Z,13.54
2022-11-02T06:05:58.084Z,13.49
2022-11-02T06:08:24.945Z,13.58
2022-11-02T06:10:51.670Z,13.46
2022-11-02T06:13:18.301Z,13.47
2022-11-02T06:15:44.930Z,13.53
2022-11-02T06:18:11.591Z,13.46
2022-11-02T06:20:38.216Z,13.50
2022-11-02T06:23:04.870Z,13.46
2022-11-02T06:25:31.706Z,13.44
2022-11-02T06:27:58.536Z,13.59
2022-11-02T06:30:29.057Z,13.54
2022-11-02T06:32:55.765Z,13.60
2022-11-02T06:35:23.035Z,13.44
2022-11-02T06:37:49.659Z,13.61
2022-11-02T06:40:18.334Z,13.56
2022-11-02T06:42:56.727Z,13.61
2022-11-02T06:45:33.711Z,13.63
2022-11-02T06:48:00.332Z,13.69
2022-11-02T06:50:26.904Z,13.67
2022-11-02T06:52:53.425Z,13.60
2022-11-02T06:55:20.094Z,13.72
2022-11-02T06:57:46.637Z,13.71
2022-11-02T07:00:20.917Z,13.79
2022-11-02T07:03:07.963Z,13.74
2022-11-02T07:05:36.950Z,13.52
2022-11-02T07:08:04.370Z,13.63
2022-11-02T07:10:31.540Z,13.66
2022-11-02T07:12:58.734Z,13.82
2022-11-02T07:15:26.507Z,13.69
2022-11-02T07:17:53.521Z,13.89
2022-11-02T07:20:20.549Z,13.82
2022-11-02T07:22:58.047Z,13.80
2022-11-02T07:25:27.108Z,13.77
2022-11-02T07:27:54.944Z,13.56
2022-11-02T07:30:21.561Z,13.73
2022-11-02T07:32:48.546Z,13.61
2022-11-02T07:35:16.429Z,13.75
2022-11-02T07:37:43.104Z,13.59
2022-11-02T07:40:11.826Z,13.60
2022-11-02T07:42:46.487Z,13.66
2022-11-02T07:45:15.704Z,13.57
2022-11-02T07:47:44.307Z,13.63
2022-11-02T07:50:12.469Z,13.64
2022-11-02T07:52:52.785Z,13.96
2022-11-02T07:55:21.745Z,13.75
2022-11-02T07:57:57.712Z,13.83
2022-11-02T08:00:26.246Z,13.87
2022-11-02T08:03:01.002Z,14.07
2022-11-02T08:05:29.417Z,14.03
2022-11-02T08:08:04.639Z,13.78
2022-11-02T08:10:35.494Z,13.84
2022-11-02T08:13:12.281Z,13.96
2022-11-02T08:15:38.939Z,13.83
2022-11-02T08:18:12.947Z,13.81
2022-11-02T08:20:39.576Z,13.78
2022-11-02T08:23:07.739Z,13.90
2022-11-02T08:25:35.386Z,13.75
2022-11-02T08:28:02.365Z,14.04
2022-11-02T08:30:30.541Z,13.76
2022-11-02T08:33:04.526Z,13.76
2022-11-02T08:35:31.294Z,13.77
2022-11-02T08:37:59.867Z,13.87
2022-11-02T08:40:27.149Z,13.93
2022-11-02T08:43:04.602Z,14.08
2022-11-02T08:46:08.514Z,13.97
2022-11-02T08:48:19.148Z,14.25
2022-11-02T08:50:45.715Z,14.23
2022-11-02T08:53:12.267Z,13.91
2022-11-02T08:55:38.875Z,14.13
2022-11-02T08:58:05.905Z,14.19
2022-11-02T09:00:34.405Z,14.14
2022-11-02T09:03:02.255Z,14.31
2022-11-02T09:05:30.586Z,14.32
2022-11-02T09:08:01.669Z,14.47
2022-11-02T09:10:30.611Z,14.35
2022-11-02T09:12:59.649Z,14.10
2022-11-02T09:15:27.462Z,14.36
2022-11-02T09:17:54.324Z,14.43
2022-11-02T09:20:22.362Z,14.34
2022-11-02T09:22:49.627Z,14.21
2022-11-02T09:25:16.648Z,14.39
2022-11-02T09:27:43.602Z,14.22
2022-11-02T09:30:12.625Z,14.28
2022-11-02T09:32:39.732Z,14.31
2022-11-02T09:35:09.816Z,14.24
2022-11-02T09:37:36.921Z,14.13
2022-11-02T09:40:05.292Z,14.22
2022-11-02T09:42:54.823Z,14.35
2022-11-02T09:45:21.743Z,14.43
2022-11-02T09:48:15.757Z,14.48
2022-11-02T09:50:54.272Z,14.84
2022-11-02T09:53:37.730Z,14.84
2022-11-02T09:56:05.551Z,15.04
2022-11-02T09:58:40.458Z,14.77
2022-11-02T10:01:28.364Z,14.63
2022-11-02T10:04:30.859Z,14.69
2022-11-02T10:07:35.256Z,14.45
2022-11-02T10:10:15.644Z,14.40
2022-11-02T10:13:01.282Z,14.49
2022-11-02T10:15:45.020Z,14.62
2022-11-02T10:18:24.589Z,14.86
2022-11-02T10:20:53.260Z,15.17
2022-11-02T10:23:35.629Z,15.04
2022-11-02T10:26:03.082Z,14.83
2022-11-02T10:28:35.993Z,14.88
2022-11-02T10:31:15.852Z,14.94
2022-11-02T10:33:42.482Z,14.80
2022-11-02T10:36:18.244Z,14.65
2022-11-02T10:39:04.473Z,14.48
2022-11-02T10:41:44.298Z,14.61
2022-11-02T10:44:34.599Z,14.77
2022-11-02T10:47:33.381Z,14.77
2022-11-02T10:50:33.719Z,14.99
2022-11-02T10:53:20.421Z,14.83
2022-11-02T10:55:57.909Z,15.23
2022-11-02T10:58:27.942Z,15.47
2022-11-02T11:01:11.954Z,15.52
2022-11-02T11:04:05.181Z,15.43
2022-11-02T11:06:36.743Z,15.80
2022-11-02T11:09:07.400Z,15.60
2022-11-02T11:11:37.718Z,15.60
2022-11-02T11:19:53.057Z,15.93
2022-11-02T11:22:30.198Z,16.15
2022-11-02T11:25:12.071Z,16.15
2022-11-02T11:27:47.579Z,15.97
2022-11-02T11:33:19.358Z,15.74
2022-11-02T11:35:49.533Z,16.00
2022-11-02T11:38:19.933Z,16.02
2022-11-02T11:40:53.615Z,15.89
2022-11-02T11:43:25.948Z,16.25
2022-11-02T11:46:06.817Z,16.41
2022-11-02T11:48:46.392Z,16.37
2022-11-02T11:51:31.198Z,16.28
2022-11-02T11:54:19.313Z,16.10
2022-11-02T11:56:47.240Z,15.84
2022-11-02T11:59:24.338Z,15.87
2022-11-02T12:02:01.515Z,16.09
2022-11-02T12:04:28.320Z,16.00
2022-11-02T12:07:39.126Z,15.94
2022-11-02T12:10:25.972Z,16.05
2022-11-02T12:13:20.261Z,15.67
2022-11-02T12:16:07.051Z,15.65
2022-11-02T12:21:53.942Z,15.85
2022-11-02T12:24:29.593Z,16.05
2022-11-02T12:27:11.257Z,15.99
2022-11-02T12:29:59.820Z,15.93
2022-11-02T12:35:50.379Z,16.01
2022-11-02T12:38:42.840Z,16.51
2022-11-02T12:41:12.720Z,16.23
2022-11-02T12:43:49.414Z,16.39
2022-11-02T12:46:20.520Z,16.59
2022-11-02T12:48:58.131Z,16.60
2022-11-02T12:51:30.566Z,16.34
2022-11-02T12:54:41.518Z,16.47
2022-11-02T12:57:19.802Z,16.39
2022-11-02T12:59:57.417Z,16.35
2022-11-02T13:02:32.912Z,16.57
2022-11-02T13:05:14.622Z,16.51
2022-11-02T13:07:50.345Z,16.76
2022-11-02T13:10:28.232Z,16.11
2022-11-02T13:13:00.540Z,16.24
2022-11-02T13:15:31.794Z,16.27
2022-11-02T13:18:14.535Z,15.86
2022-11-02T13:20:57.701Z,15.89
2022-11-02T13:23:37.161Z,15.79
2022-11-02T13:26:57.120Z,15.62
2022-11-02T13:33:39.666Z,16.07
2022-11-02T13:36:07.226Z,15.95
2022-11-02T13:38:47.118Z,16.01
2022-11-02T13:45:35.237Z,16.04
2022-11-02T13:48:14.662Z,16.00
2022-11-02T13:50:47.365Z,15.73
2022-11-02T13:53:46.296Z,16.07
2022-11-02T13:59:43.327Z,15.98
2022-11-02T14:03:18.964Z,16.24
2022-11-02T14:06:21.703Z,15.80
2022-11-02T14:09:28.108Z,15.95
2022-11-02T14:12:24.366Z,16.15
2022-11-02T14:15:23.499Z,16.24
2022-11-02T14:18:41.638Z,16.09
2022-11-02T14:21:45.908Z,16.18
2022-11-02T14:24:40.762Z,16.24
2022-11-02T14:27:22.886Z,15.93
2022-11-02T14:30:03.178Z,15.74
2022-11-02T14:39:59.765Z,15.98
2022-11-02T14:43:12.984Z,16.03
2022-11-02T14:46:16.529Z,15.88
2022-11-02T14:48:50.926Z,15.80
2022-11-02T14:51:36.921Z,15.73
2022-11-02T14:54:24.707Z,15.30
2022-11-02T14:57:46.044Z,15.24
2022-11-02T15:00:22.031Z,15.66
2022-11-02T15:03:01.002Z,15.73
2022-11-02T15:05:45.995Z,15.79
2022-11-02T15:08:36.915Z,15.84
2022-11-02T15:11:51.564Z,15.72
2022-11-02T15:14:56.095Z,15.87
2022-11-02T15:17:47.680Z,15.81
2022-11-02T15:20:47.759Z,15.65
2022-11-02T15:23:31.282Z,15.49
2022-11-02T15:26:18.178Z,15.11
2022-11-02T15:29:10.646Z,15.29
2022-11-02T15:31:50.215Z,15.35
2022-11-02T15:34:45.143Z,15.22
2022-11-02T15:37:37.343Z,15.26
2022-11-02T15:40:49.481Z,15.18
2022-11-02T15:44:15.578Z,14.97
2022-11-02T15:47:16.720Z,15.01
2022-11-02T15:51:13.836Z,14.65
2022-11-02T15:54:30.281Z,14.70
2022-11-02T15:57:48.706Z,14.64
2022-11-02T16:04:29.087Z,15.05
2022-11-02T16:07:16.459Z,14.94
2022-11-02T16:10:01.131Z,14.51
2022-11-02T16:13:00.533Z,14.91
2022-11-02T16:15:52.949Z,14.47
2022-11-02T16:19:11.416Z,14.48
2022-11-02T16:22:01.114Z,14.63
2022-11-02T16:25:33.868Z,14.52
2022-11-02T16:29:04.434Z,14.29
2022-11-02T16:31:55.095Z,14.43
2022-11-02T16:34:42.450Z,14.32
2022-11-02T16:37:36.275Z,14.14
2022-11-02T16:40:15.891Z,14.19
2022-11-02T16:42:53.633Z,14.03
2022-11-02T16:45:43.155Z,14.13
2022-11-02T16:48:25.923Z,13.93
2022-11-02T16:51:22.710Z,13.87
2022-11-02T16:54:29.349Z,13.73
2022-11-02T16:57:11.701Z,13.67
2022-11-02T17:04:14.500Z,13.33
2022-11-02T17:10:27.595Z,13.22
2022-11-02T17:13:24.539Z,13.19
2022-11-02T17:25:31.344Z,13.16
2022-11-02T17:29:15.109Z,12.91
2022-11-02T17:35:29.564Z,12.55
2022-11-02T17:38:19.100Z,12.54
2022-11-02T17:45:52.877Z,12.64
2022-11-02T17:48:44.097Z,12.48
2022-11-02T17:54:00.606Z,12.38
2022-11-02T17:56:42.225Z,12.23
2022-11-02T18:03:58.000Z,12.25
2022-11-02T18:06:28.425Z,12.09
2022-11-02T18:09:23.159Z,12.12
2022-11-02T18:12:04.328Z,11.69
2022-11-02T18:15:03.195Z,11.78
2022-11-02T18:18:17.915Z,11.53
2022-11-02T18:22:02.657Z,11.84
2022-11-02T18:25:18.385Z,11.81
2022-11-02T18:28:11.167Z,11.50
2022-11-02T18:30:58.618Z,11.77
2022-11-02T18:33:47.724Z,11.74
2022-11-02T18:36:44.998Z,11.34
2022-11-02T18:39:58.191Z,11.79
2022-11-02T18:42:47.383Z,11.47
2022-11-02T18:45:15.925Z,11.79
2022-11-02T18:47:42.836Z,11.79
2022-11-02T18:50:12.372Z,11.74
2022-11-02T18:52:39.466Z,11.69
2022-11-02T18:55:06.684Z,11.70
2022-11-02T18:57:33.332Z,11.70
2022-11-02T19:00:02.453Z,11.76
2022-11-02T19:02:29.711Z,11.80
2022-11-02T19:04:56.608Z,11.68
2022-11-02T19:07:41.887Z,11.66
2022-11-02T19:10:09.706Z,11.67
2022-11-02T19:12:36.604Z,11.63
2022-11-02T19:15:04.303Z,11.52
2022-11-02T19:17:31.431Z,11.50
2022-11-02T19:20:06.300Z,11.58
2022-11-02T19:22:35.926Z,11.40
2022-11-02T19:25:06.394Z,11.43
2022-11-02T19:27:34.367Z,11.42
2022-11-02T19:30:02.664Z,11.23
2022-11-02T19:32:32.491Z,11.40
2022-11-02T19:34:59.084Z,11.29
2022-11-02T19:37:26.060Z,11.24
2022-11-02T19:39:57.874Z,11.07
2022-11-02T19:42:29.879Z,11.21
2022-11-02T19:44:57.579Z,11.13
2022-11-02T19:47:28.261Z,11.17
2022-11-02T19:49:56.084Z,11.20
2022-11-02T19:52:25.546Z,11.26
2022-11-02T19:54:55.730Z,11.23
2022-11-02T19:57:22.390Z,11.00
2022-11-02T19:59:49.034Z,11.16
2022-11-02T20:02:18.579Z,11.19
2022-11-02T20:04:45.470Z,11.17
2022-11-02T20:07:12.036Z,11.12
2022-11-02T20:09:38.589Z,11.10
2022-11-02T20:12:07.487Z,11.03
2022-11-02T20:14:36.327Z,10.84
2022-11-02T20:17:29.767Z,10.89
2022-11-02T20:19:49.472Z,10.90
2022-11-02T20:22:18.174Z,10.87
2022-11-02T20:24:44.708Z,10.84
2022-11-02T20:27:12.749Z,10.84
2022-11-02T20:29:40.518Z,10.68
2022-11-02T20:32:10.179Z,10.73
2022-11-02T20:34:36.717Z,10.77
2022-11-02T20:37:05.007Z,10.66
2022-11-02T20:39:31.604Z,10.58
2022-11-02T20:41:58.143Z,10.50
2022-11-02T20:44:25.017Z,10.49
2022-11-02T20:46:53.270Z,10.61
2022-11-02T20:49:36.351Z,10.39
2022-11-02T20:52:07.979Z,10.33
2022-11-02T20:54:34.522Z,10.30
2022-11-02T20:57:01.351Z,10.33
2022-11-02T20:59:27.926Z,10.41
2022-11-02T21:01:54.571Z,10.39
2022-11-02T21:04:21.897Z,10.41
2022-11-02T21:06:51.882Z,10.43
2022-11-02T21:09:19.149Z,10.40
2022-11-02T21:12:04.446Z,10.39
2022-11-02T21:14:31.123Z,10.49
2022-11-02T21:16:57.781Z,10.48
2022-11-02T21:19:24.395Z,10.46
2022-11-02T21:21:55.104Z,10.44
2022-11-02T21:24:24.773Z,10.56
2022-11-02T21:26:51.532Z,10.50
2022-11-02T21:29:18.150Z,10.43
2022-11-02T21:31:45.306Z,10.53
2022-11-02T21:34:11.845Z,10.59
2022-11-02T21:36:40.574Z,10.57
2022-11-02T21:39:07.660Z,10.71
2022-11-02T21:41:38.349Z,10.62
2022-11-02T21:44:06.915Z,10.74
2022-11-02T21:46:33.444Z,10.65
2022-11-02T21:49:00.010Z,10.67
2022-11-02T21:51:26.809Z,10.71
2022-11-02T21:53:53.467Z,10.67
2022-11-02T21:56:22.976Z,10.68
2022-11-02T21:58:49.646Z,10.80
2022-11-02T22:01:35.080Z,10.91
2022-11-02T22:04:02.415Z,10.96
2022-11-02T22:06:31.468Z,10.80
2022-11-02T22:08:59.363Z,11.01
2022-11-02T22:11:29.233Z,10.95
2022-11-02T22:13:58.176Z,10.86
2022-11-02T22:16:36.471Z,10.93
2022-11-02T22:19:08.174Z,10.94
2022-11-02T22:21:37.872Z,10.90
2022-11-02T22:24:05.596Z,11.06
2022-11-02T22:26:34.779Z,10.98
2022-11-02T22:29:01.891Z,10.86
2022-11-02T22:31:31.586Z,10.99
2022-11-02T22:34:00.644Z,10.93
2022-11-02T22:36:29.558Z,10.80
2022-11-02T22:38:58.508Z,10.91
2022-11-02T22:41:25.756Z,11.04
2022-11-02T22:43:57.926Z,11.16
2022-11-02T22:46:26.505Z,11.19
2022-11-02T22:48:55.391Z,11.18
2022-11-02T22:51:24.804Z,11.05
2022-11-02T22:53:51.701Z,11.13
2022-11-02T22:56:20.866Z,10.98
2022-11-02T22:58:48.433Z,10.92
2022-11-02T23:01:20.985Z,10.92
2022-11-02T23:03:48.415Z,10.74
2022-11-02T23:06:16.126Z,10.96
2022-11-02T23:08:45.755Z,11.07
2022-11-02T23:11:22.627Z,10.99
2022-11-02T23:14:04.179Z,10.87
2022-11-02T23:16:46.801Z,10.95
2022-11-02T23:19:30.925Z,10.98
2022-11-02T23:22:19.288Z,11.00
2022-11-02T23:25:09.807Z,10.92
2022-11-02T23:27:58.922Z,10.79
2022-11-02T23:30:49.659Z,10.78
2022-11-02T23:33:16.742Z,10.65
2022-11-02T23:36:02.301Z,10.56
2022-11-02T23:38:49.132Z,10.69
2022-11-02T23:41:16.944Z,10.74
2022-11-02T23:43:43.559Z,10.76
2022-11-02T23:46:10.405Z,10.60
2022-11-02T23:48:36.927Z,10.70
2022-11-02T23:51:22.654Z,10.70
2022-11-02T23:54:07.418Z,10.74
2022-11-02T23:56:43.433Z,10.68
2022-11-02T23:59:11.552Z,10.73
